sensor_id;sensor_type;location;lat;lon;timestamp;P1;durP1;ratioP1;P2;durP2;ratioP2
11735;SDS011;5924;51.398;7.088;2024-03-06T00:00:55;27.50;;;17.37;;
11735;SDS011;5924;51.398;7.088;2024-03-06T00:03:20;36.73;;;17.17;;
11735;SDS011;5924;51.398;7.088;2024-03-06T00:05:47;28.60;;;17.40;;
11735;SDS011;5924;51.398;7.088;2024-03-06T00:08:13;37.57;;;18.20;;
11735;SDS011;5924;51.398;7.088;2024-03-06T00:10:40;51.60;;;20.30;;
11735;SDS011;5924;51.398;7.088;2024-03-06T00:13:06;39.10;;;19.20;;
11735;SDS011;5924;51.398;7.088;2024-03-06T00:15:33;31.80;;;17.27;;
11735;SDS011;5924;51.398;7.088;2024-03-06T00:17:59;50.70;;;18.80;;
11735;SDS011;5924;51.398;7.088;2024-03-06T00:20:25;37.30;;;18.10;;
11735;SDS011;5924;51.398;7.088;2024-03-06T00:22:51;63.87;;;18.90;;
11735;SDS011;5924;51.398;7.088;2024-03-06T00:25:17;54.23;;;16.50;;
11735;SDS011;5924;51.398;7.088;2024-03-06T00:27:42;107.53;;;17.20;;
11735;SDS011;5924;51.398;7.088;2024-03-06T00:30:08;79.53;;;15.93;;
11735;SDS011;5924;51.398;7.088;2024-03-06T00:32:34;98.00;;;15.97;;
11735;SDS011;5924;51.398;7.088;2024-03-06T00:35:00;89.40;;;15.73;;
11735;SDS011;5924;51.398;7.088;2024-03-06T00:37:25;66.77;;;16.80;;
11735;SDS011;5924;51.398;7.088;2024-03-06T00:39:51;68.03;;;16.10;;
11735;SDS011;5924;51.398;7.088;2024-03-06T00:42:17;52.23;;;15.33;;
11735;SDS011;5924;51.398;7.088;2024-03-06T00:44:43;72.27;;;18.20;;
11735;SDS011;5924;51.398;7.088;2024-03-06T00:47:08;18.63;;;13.83;;
11735;SDS011;5924;51.398;7.088;2024-03-06T00:49:34;35.80;;;17.10;;
11735;SDS011;5924;51.398;7.088;2024-03-06T00:52:00;26.17;;;15.47;;
11735;SDS011;5924;51.398;7.088;2024-03-06T00:54:25;42.87;;;17.33;;
11735;SDS011;5924;51.398;7.088;2024-03-06T00:56:51;51.73;;;18.07;;
11735;SDS011;5924;51.398;7.088;2024-03-06T00:59:16;42.40;;;20.10;;
11735;SDS011;5924;51.398;7.088;2024-03-06T01:01:42;50.97;;;19.23;;
11735;SDS011;5924;51.398;7.088;2024-03-06T01:04:08;36.70;;;18.33;;
11735;SDS011;5924;51.398;7.088;2024-03-06T01:06:34;43.73;;;18.07;;
11735;SDS011;5924;51.398;7.088;2024-03-06T01:09:00;48.20;;;17.70;;
11735;SDS011;5924;51.398;7.088;2024-03-06T01:11:25;42.20;;;18.70;;
11735;SDS011;5924;51.398;7.088;2024-03-06T01:13:51;44.53;;;17.10;;
11735;SDS011;5924;51.398;7.088;2024-03-06T01:16:17;127.63;;;17.70;;
11735;SDS011;5924;51.398;7.088;2024-03-06T01:18:43;26.93;;;16.70;;
11735;SDS011;5924;51.398;7.088;2024-03-06T01:21:09;58.53;;;16.70;;
11735;SDS011;5924;51.398;7.088;2024-03-06T01:23:35;39.60;;;16.00;;
11735;SDS011;5924;51.398;7.088;2024-03-06T01:26:00;36.37;;;17.37;;
11735;SDS011;5924;51.398;7.088;2024-03-06T01:28:26;32.57;;;17.37;;
11735;SDS011;5924;51.398;7.088;2024-03-06T01:30:52;58.90;;;18.50;;
11735;SDS011;5924;51.398;7.088;2024-03-06T01:33:17;187.67;;;20.80;;
11735;SDS011;5924;51.398;7.088;2024-03-06T01:35:43;29.97;;;16.87;;
11735;SDS011;5924;51.398;7.088;2024-03-06T01:38:09;29.67;;;15.80;;
11735;SDS011;5924;51.398;7.088;2024-03-06T01:40:35;33.50;;;17.00;;
11735;SDS011;5924;51.398;7.088;2024-03-06T01:43:01;32.00;;;17.30;;
11735;SDS011;5924;51.398;7.088;2024-03-06T01:45:26;30.00;;;16.00;;
11735;SDS011;5924;51.398;7.088;2024-03-06T01:47:52;73.07;;;17.13;;
11735;SDS011;5924;51.398;7.088;2024-03-06T01:50:18;30.97;;;15.83;;
11735;SDS011;5924;51.398;7.088;2024-03-06T01:52:44;42.80;;;16.40;;
11735;SDS011;5924;51.398;7.088;2024-03-06T01:55:11;39.40;;;16.40;;
11735;SDS011;5924;51.398;7.088;2024-03-06T01:57:38;23.70;;;15.90;;
11735;SDS011;5924;51.398;7.088;2024-03-06T02:00:06;28.37;;;16.63;;
11735;SDS011;5924;51.398;7.088;2024-03-06T02:02:38;30.63;;;16.17;;
11735;SDS011;5924;51.398;7.088;2024-03-06T02:05:06;40.80;;;16.90;;
11735;SDS011;5924;51.398;7.088;2024-03-06T02:07:32;24.00;;;15.07;;
11735;SDS011;5924;51.398;7.088;2024-03-06T02:09:58;33.83;;;16.33;;
11735;SDS011;5924;51.398;7.088;2024-03-06T02:12:24;21.37;;;13.70;;
11735;SDS011;5924;51.398;7.088;2024-03-06T02:14:50;21.40;;;12.87;;
11735;SDS011;5924;51.398;7.088;2024-03-06T02:17:16;17.67;;;12.90;;
11735;SDS011;5924;51.398;7.088;2024-03-06T02:19:42;19.93;;;13.17;;
11735;SDS011;5924;51.398;7.088;2024-03-06T02:22:09;18.23;;;12.27;;
11735;SDS011;5924;51.398;7.088;2024-03-06T02:24:35;20.63;;;12.90;;
11735;SDS011;5924;51.398;7.088;2024-03-06T02:27:02;58.17;;;15.73;;
11735;SDS011;5924;51.398;7.088;2024-03-06T02:29:30;22.53;;;13.17;;
11735;SDS011;5924;51.398;7.088;2024-03-06T02:31:57;24.13;;;14.17;;
11735;SDS011;5924;51.398;7.088;2024-03-06T02:34:23;26.20;;;14.90;;
11735;SDS011;5924;51.398;7.088;2024-03-06T02:36:50;30.33;;;16.63;;
11735;SDS011;5924;51.398;7.088;2024-03-06T02:39:17;165.63;;;19.20;;
11735;SDS011;5924;51.398;7.088;2024-03-06T02:41:42;46.23;;;14.00;;
11735;SDS011;5924;51.398;7.088;2024-03-06T02:44:08;29.83;;;15.97;;
11735;SDS011;5924;51.398;7.088;2024-03-06T02:46:34;30.23;;;16.90;;
11735;SDS011;5924;51.398;7.088;2024-03-06T02:49:00;28.77;;;15.00;;
11735;SDS011;5924;51.398;7.088;2024-03-06T02:51:26;33.60;;;16.37;;
11735;SDS011;5924;51.398;7.088;2024-03-06T02:53:51;25.67;;;13.90;;
11735;SDS011;5924;51.398;7.088;2024-03-06T02:56:18;25.60;;;13.97;;
11735;SDS011;5924;51.398;7.088;2024-03-06T02:58:44;27.53;;;15.10;;
11735;SDS011;5924;51.398;7.088;2024-03-06T03:01:10;29.97;;;15.33;;
11735;SDS011;5924;51.398;7.088;2024-03-06T03:03:36;35.97;;;16.50;;
11735;SDS011;5924;51.398;7.088;2024-03-06T03:06:02;32.87;;;16.13;;
11735;SDS011;5924;51.398;7.088;2024-03-06T03:08:29;38.90;;;18.23;;
11735;SDS011;5924;51.398;7.088;2024-03-06T03:10:55;31.87;;;16.83;;
11735;SDS011;5924;51.398;7.088;2024-03-06T03:13:22;38.87;;;18.17;;
11735;SDS011;5924;51.398;7.088;2024-03-06T03:15:47;38.67;;;17.70;;
11735;SDS011;5924;51.398;7.088;2024-03-06T03:18:13;27.87;;;15.20;;
11735;SDS011;5924;51.398;7.088;2024-03-06T03:20:39;45.70;;;19.27;;
11735;SDS011;5924;51.398;7.088;2024-03-06T03:23:04;38.03;;;19.20;;
11735;SDS011;5924;51.398;7.088;2024-03-06T03:25:31;38.97;;;17.10;;
11735;SDS011;5924;51.398;7.088;2024-03-06T03:27:58;40.60;;;18.03;;
11735;SDS011;5924;51.398;7.088;2024-03-06T03:30:24;31.60;;;17.00;;
11735;SDS011;5924;51.398;7.088;2024-03-06T03:32:49;38.67;;;17.90;;
11735;SDS011;5924;51.398;7.088;2024-03-06T03:35:15;42.67;;;19.13;;
11735;SDS011;5924;51.398;7.088;2024-03-06T03:37:42;37.90;;;18.40;;
11735;SDS011;5924;51.398;7.088;2024-03-06T03:40:08;39.57;;;18.50;;
11735;SDS011;5924;51.398;7.088;2024-03-06T03:42:36;46.30;;;19.93;;
11735;SDS011;5924;51.398;7.088;2024-03-06T03:45:03;38.00;;;16.40;;
11735;SDS011;5924;51.398;7.088;2024-03-06T03:47:29;47.13;;;18.70;;
11735;SDS011;5924;51.398;7.088;2024-03-06T03:49:55;54.93;;;21.50;;
11735;SDS011;5924;51.398;7.088;2024-03-06T03:52:21;35.33;;;17.27;;
11735;SDS011;5924;51.398;7.088;2024-03-06T03:54:47;41.77;;;18.87;;
11735;SDS011;5924;51.398;7.088;2024-03-06T03:57:13;41.43;;;19.33;;
11735;SDS011;5924;51.398;7.088;2024-03-06T03:59:39;41.77;;;19.40;;
11735;SDS011;5924;51.398;7.088;2024-03-06T04:02:06;38.70;;;17.80;;
11735;SDS011;5924;51.398;7.088;2024-03-06T04:04:33;41.93;;;19.10;;
11735;SDS011;5924;51.398;7.088;2024-03-06T04:06:59;51.53;;;21.27;;
11735;SDS011;5924;51.398;7.088;2024-03-06T04:09:27;46.13;;;20.40;;
11735;SDS011;5924;51.398;7.088;2024-03-06T04:11:53;46.00;;;19.83;;
11735;SDS011;5924;51.398;7.088;2024-03-06T04:14:18;31.57;;;16.90;;
11735;SDS011;5924;51.398;7.088;2024-03-06T04:16:45;38.57;;;17.80;;
11735;SDS011;5924;51.398;7.088;2024-03-06T04:19:11;37.93;;;19.40;;
11735;SDS011;5924;51.398;7.088;2024-03-06T04:21:42;52.10;;;19.13;;
11735;SDS011;5924;51.398;7.088;2024-03-06T04:24:08;46.77;;;18.40;;
11735;SDS011;5924;51.398;7.088;2024-03-06T04:26:34;32.80;;;17.40;;
11735;SDS011;5924;51.398;7.088;2024-03-06T04:29:00;37.10;;;17.20;;
11735;SDS011;5924;51.398;7.088;2024-03-06T04:31:26;29.70;;;14.37;;
11735;SDS011;5924;51.398;7.088;2024-03-06T04:33:51;31.57;;;15.97;;
11735;SDS011;5924;51.398;7.088;2024-03-06T04:36:17;33.70;;;15.80;;
11735;SDS011;5924;51.398;7.088;2024-03-06T04:38:43;44.37;;;18.23;;
11735;SDS011;5924;51.398;7.088;2024-03-06T04:41:09;37.37;;;18.47;;
11735;SDS011;5924;51.398;7.088;2024-03-06T04:43:35;40.70;;;17.10;;
11735;SDS011;5924;51.398;7.088;2024-03-06T04:46:01;34.67;;;17.57;;
11735;SDS011;5924;51.398;7.088;2024-03-06T04:48:27;40.73;;;18.70;;
11735;SDS011;5924;51.398;7.088;2024-03-06T04:50:53;43.83;;;18.97;;
11735;SDS011;5924;51.398;7.088;2024-03-06T04:53:18;37.67;;;17.10;;
11735;SDS011;5924;51.398;7.088;2024-03-06T04:55:47;35.13;;;18.13;;
11735;SDS011;5924;51.398;7.088;2024-03-06T04:58:13;40.43;;;18.00;;
11735;SDS011;5924;51.398;7.088;2024-03-06T05:00:38;39.80;;;18.57;;
11735;SDS011;5924;51.398;7.088;2024-03-06T05:03:04;56.83;;;22.80;;
11735;SDS011;5924;51.398;7.088;2024-03-06T05:05:30;41.67;;;17.97;;
11735;SDS011;5924;51.398;7.088;2024-03-06T05:07:57;39.40;;;17.17;;
11735;SDS011;5924;51.398;7.088;2024-03-06T05:10:22;33.90;;;15.87;;
11735;SDS011;5924;51.398;7.088;2024-03-06T05:12:48;48.53;;;19.17;;
11735;SDS011;5924;51.398;7.088;2024-03-06T05:15:14;49.43;;;17.87;;
11735;SDS011;5924;51.398;7.088;2024-03-06T05:17:40;33.93;;;16.60;;
11735;SDS011;5924;51.398;7.088;2024-03-06T05:20:06;31.63;;;15.20;;
11735;SDS011;5924;51.398;7.088;2024-03-06T05:22:32;31.97;;;16.70;;
11735;SDS011;5924;51.398;7.088;2024-03-06T05:24:58;26.53;;;15.13;;
11735;SDS011;5924;51.398;7.088;2024-03-06T05:27:24;39.20;;;16.70;;
11735;SDS011;5924;51.398;7.088;2024-03-06T05:29:51;42.60;;;18.33;;
11735;SDS011;5924;51.398;7.088;2024-03-06T05:32:17;51.87;;;19.07;;
11735;SDS011;5924;51.398;7.088;2024-03-06T05:34:42;48.70;;;20.43;;
11735;SDS011;5924;51.398;7.088;2024-03-06T05:37:09;41.93;;;18.70;;
11735;SDS011;5924;51.398;7.088;2024-03-06T05:39:35;43.10;;;19.83;;
11735;SDS011;5924;51.398;7.088;2024-03-06T05:42:01;48.07;;;20.47;;
11735;SDS011;5924;51.398;7.088;2024-03-06T05:44:28;41.07;;;18.60;;
11735;SDS011;5924;51.398;7.088;2024-03-06T05:46:55;53.33;;;21.73;;
11735;SDS011;5924;51.398;7.088;2024-03-06T05:49:21;46.90;;;18.63;;
11735;SDS011;5924;51.398;7.088;2024-03-06T05:51:47;61.03;;;22.60;;
11735;SDS011;5924;51.398;7.088;2024-03-06T05:54:13;63.33;;;22.90;;
11735;SDS011;5924;51.398;7.088;2024-03-06T05:56:38;53.33;;;21.67;;
11735;SDS011;5924;51.398;7.088;2024-03-06T05:59:04;54.30;;;21.27;;
11735;SDS011;5924;51.398;7.088;2024-03-06T06:01:33;45.13;;;18.90;;
11735;SDS011;5924;51.398;7.088;2024-03-06T06:03:59;41.03;;;17.30;;
11735;SDS011;5924;51.398;7.088;2024-03-06T06:06:25;47.03;;;18.40;;
11735;SDS011;5924;51.398;7.088;2024-03-06T06:08:51;38.37;;;18.40;;
11735;SDS011;5924;51.398;7.088;2024-03-06T06:11:17;43.87;;;18.50;;
11735;SDS011;5924;51.398;7.088;2024-03-06T06:13:43;49.57;;;18.37;;
11735;SDS011;5924;51.398;7.088;2024-03-06T06:16:08;51.17;;;18.17;;
11735;SDS011;5924;51.398;7.088;2024-03-06T06:18:34;41.53;;;18.23;;
11735;SDS011;5924;51.398;7.088;2024-03-06T06:21:00;47.17;;;19.23;;
11735;SDS011;5924;51.398;7.088;2024-03-06T06:23:26;47.03;;;20.77;;
11735;SDS011;5924;51.398;7.088;2024-03-06T06:25:52;38.70;;;18.00;;
11735;SDS011;5924;51.398;7.088;2024-03-06T06:28:17;40.27;;;17.20;;
11735;SDS011;5924;51.398;7.088;2024-03-06T06:30:43;51.70;;;18.87;;
11735;SDS011;5924;51.398;7.088;2024-03-06T06:33:09;43.17;;;17.27;;
11735;SDS011;5924;51.398;7.088;2024-03-06T06:35:34;47.60;;;18.90;;
11735;SDS011;5924;51.398;7.088;2024-03-06T06:38:01;48.47;;;19.27;;
11735;SDS011;5924;51.398;7.088;2024-03-06T06:40:27;45.93;;;18.87;;
11735;SDS011;5924;51.398;7.088;2024-03-06T06:42:55;42.50;;;17.60;;
11735;SDS011;5924;51.398;7.088;2024-03-06T06:45:21;59.87;;;22.13;;
11735;SDS011;5924;51.398;7.088;2024-03-06T06:47:47;46.03;;;19.60;;
11735;SDS011;5924;51.398;7.088;2024-03-06T06:50:14;52.80;;;22.17;;
11735;SDS011;5924;51.398;7.088;2024-03-06T06:52:40;50.50;;;20.13;;
11735;SDS011;5924;51.398;7.088;2024-03-06T06:55:06;54.20;;;21.60;;
11735;SDS011;5924;51.398;7.088;2024-03-06T06:57:34;56.37;;;20.80;;
11735;SDS011;5924;51.398;7.088;2024-03-06T07:00:00;53.67;;;20.10;;
11735;SDS011;5924;51.398;7.088;2024-03-06T07:02:26;49.67;;;19.40;;
11735;SDS011;5924;51.398;7.088;2024-03-06T07:04:52;55.60;;;21.10;;
11735;SDS011;5924;51.398;7.088;2024-03-06T07:07:18;65.10;;;22.17;;
11735;SDS011;5924;51.398;7.088;2024-03-06T07:09:44;56.00;;;19.60;;
11735;SDS011;5924;51.398;7.088;2024-03-06T07:12:09;53.03;;;18.20;;
11735;SDS011;5924;51.398;7.088;2024-03-06T07:14:35;66.93;;;23.83;;
11735;SDS011;5924;51.398;7.088;2024-03-06T07:17:01;72.57;;;25.27;;
11735;SDS011;5924;51.398;7.088;2024-03-06T07:19:27;72.93;;;23.37;;
11735;SDS011;5924;51.398;7.088;2024-03-06T07:21:52;68.03;;;24.37;;
11735;SDS011;5924;51.398;7.088;2024-03-06T07:24:18;79.30;;;25.40;;
11735;SDS011;5924;51.398;7.088;2024-03-06T07:26:44;72.37;;;24.70;;
11735;SDS011;5924;51.398;7.088;2024-03-06T07:29:10;77.97;;;22.63;;
11735;SDS011;5924;51.398;7.088;2024-03-06T07:31:42;86.90;;;24.60;;
11735;SDS011;5924;51.398;7.088;2024-03-06T07:34:09;86.40;;;23.57;;
11735;SDS011;5924;51.398;7.088;2024-03-06T07:36:38;105.13;;;30.30;;
11735;SDS011;5924;51.398;7.088;2024-03-06T07:39:04;176.53;;;33.47;;
11735;SDS011;5924;51.398;7.088;2024-03-06T07:41:29;107.57;;;30.37;;
11735;SDS011;5924;51.398;7.088;2024-03-06T07:43:57;104.27;;;27.27;;
11735;SDS011;5924;51.398;7.088;2024-03-06T07:46:24;105.20;;;29.20;;
11735;SDS011;5924;51.398;7.088;2024-03-06T07:48:50;106.67;;;29.00;;
11735;SDS011;5924;51.398;7.088;2024-03-06T07:51:16;102.23;;;31.97;;
11735;SDS011;5924;51.398;7.088;2024-03-06T07:53:42;307.37;;;35.17;;
11735;SDS011;5924;51.398;7.088;2024-03-06T07:56:11;131.30;;;30.57;;
11735;SDS011;5924;51.398;7.088;2024-03-06T07:58:37;394.17;;;40.60;;
11735;SDS011;5924;51.398;7.088;2024-03-06T08:01:03;497.57;;;41.93;;
11735;SDS011;5924;51.398;7.088;2024-03-06T08:03:29;383.63;;;37.20;;
11735;SDS011;5924;51.398;7.088;2024-03-06T08:05:55;271.00;;;36.13;;
11735;SDS011;5924;51.398;7.088;2024-03-06T08:08:20;110.60;;;31.70;;
11735;SDS011;5924;51.398;7.088;2024-03-06T08:10:46;462.07;;;39.53;;
11735;SDS011;5924;51.398;7.088;2024-03-06T08:13:12;656.23;;;43.00;;
11735;SDS011;5924;51.398;7.088;2024-03-06T08:15:39;123.03;;;31.40;;
11735;SDS011;5924;51.398;7.088;2024-03-06T08:18:05;409.70;;;37.20;;
11735;SDS011;5924;51.398;7.088;2024-03-06T08:20:31;119.37;;;30.80;;
11735;SDS011;5924;51.398;7.088;2024-03-06T08:22:57;792.43;;;46.70;;
11735;SDS011;5924;51.398;7.088;2024-03-06T08:25:23;79.93;;;26.43;;
11735;SDS011;5924;51.398;7.088;2024-03-06T08:27:48;63.47;;;24.40;;
11735;SDS011;5924;51.398;7.088;2024-03-06T08:30:14;599.13;;;40.30;;
11735;SDS011;5924;51.398;7.088;2024-03-06T08:32:40;68.63;;;27.30;;
11735;SDS011;5924;51.398;7.088;2024-03-06T08:35:10;173.17;;;30.03;;
11735;SDS011;5924;51.398;7.088;2024-03-06T08:37:39;72.13;;;26.70;;
11735;SDS011;5924;51.398;7.088;2024-03-06T08:40:05;112.93;;;29.33;;
11735;SDS011;5924;51.398;7.088;2024-03-06T08:42:39;120.93;;;32.20;;
11735;SDS011;5924;51.398;7.088;2024-03-06T08:45:08;220.47;;;33.43;;
11735;SDS011;5924;51.398;7.088;2024-03-06T08:47:35;195.63;;;31.83;;
11735;SDS011;5924;51.398;7.088;2024-03-06T08:50:01;262.90;;;33.90;;
11735;SDS011;5924;51.398;7.088;2024-03-06T08:52:27;214.10;;;29.57;;
11735;SDS011;5924;51.398;7.088;2024-03-06T08:54:53;183.33;;;31.30;;
11735;SDS011;5924;51.398;7.088;2024-03-06T08:57:19;74.30;;;28.87;;
11735;SDS011;5924;51.398;7.088;2024-03-06T08:59:47;120.83;;;28.83;;
11735;SDS011;5924;51.398;7.088;2024-03-06T09:02:13;64.63;;;27.43;;
11735;SDS011;5924;51.398;7.088;2024-03-06T09:04:40;160.47;;;33.30;;
11735;SDS011;5924;51.398;7.088;2024-03-06T09:07:07;105.93;;;27.20;;
11735;SDS011;5924;51.398;7.088;2024-03-06T09:09:33;128.30;;;29.53;;
11735;SDS011;5924;51.398;7.088;2024-03-06T09:11:59;265.70;;;29.63;;
11735;SDS011;5924;51.398;7.088;2024-03-06T09:14:39;60.37;;;25.97;;
11735;SDS011;5924;51.398;7.088;2024-03-06T09:17:06;61.70;;;27.33;;
11735;SDS011;5924;51.398;7.088;2024-03-06T09:19:34;51.77;;;24.40;;
11735;SDS011;5924;51.398;7.088;2024-03-06T09:22:00;109.17;;;27.67;;
11735;SDS011;5924;51.398;7.088;2024-03-06T09:24:26;94.07;;;28.90;;
11735;SDS011;5924;51.398;7.088;2024-03-06T09:26:53;57.87;;;25.97;;
11735;SDS011;5924;51.398;7.088;2024-03-06T09:29:18;58.17;;;23.73;;
11735;SDS011;5924;51.398;7.088;2024-03-06T09:31:45;58.73;;;27.43;;
11735;SDS011;5924;51.398;7.088;2024-03-06T09:34:12;56.10;;;26.17;;
11735;SDS011;5924;51.398;7.088;2024-03-06T09:36:39;50.93;;;24.13;;
11735;SDS011;5924;51.398;7.088;2024-03-06T09:39:14;47.20;;;23.20;;
11735;SDS011;5924;51.398;7.088;2024-03-06T09:41:48;65.27;;;25.17;;
11735;SDS011;5924;51.398;7.088;2024-03-06T09:44:15;64.83;;;27.93;;
11735;SDS011;5924;51.398;7.088;2024-03-06T09:46:45;57.40;;;27.37;;
11735;SDS011;5924;51.398;7.088;2024-03-06T09:49:13;59.13;;;26.30;;
11735;SDS011;5924;51.398;7.088;2024-03-06T09:51:42;58.40;;;27.53;;
11735;SDS011;5924;51.398;7.088;2024-03-06T09:54:12;61.93;;;26.30;;
11735;SDS011;5924;51.398;7.088;2024-03-06T09:56:42;53.80;;;26.00;;
11735;SDS011;5924;51.398;7.088;2024-03-06T09:59:09;62.67;;;28.67;;
11735;SDS011;5924;51.398;7.088;2024-03-06T10:01:36;62.80;;;28.90;;
11735;SDS011;5924;51.398;7.088;2024-03-06T10:04:21;58.73;;;27.63;;
11735;SDS011;5924;51.398;7.088;2024-03-06T10:06:54;57.50;;;26.83;;
11735;SDS011;5924;51.398;7.088;2024-03-06T10:09:21;60.90;;;27.77;;
11735;SDS011;5924;51.398;7.088;2024-03-06T10:11:48;60.93;;;28.23;;
11735;SDS011;5924;51.398;7.088;2024-03-06T10:14:14;60.70;;;25.37;;
11735;SDS011;5924;51.398;7.088;2024-03-06T10:16:51;67.37;;;27.43;;
11735;SDS011;5924;51.398;7.088;2024-03-06T10:19:35;64.50;;;28.80;;
11735;SDS011;5924;51.398;7.088;2024-03-06T10:22:02;65.10;;;28.30;;
11735;SDS011;5924;51.398;7.088;2024-03-06T10:24:33;60.33;;;26.50;;
11735;SDS011;5924;51.398;7.088;2024-03-06T10:26:59;63.63;;;27.83;;
11735;SDS011;5924;51.398;7.088;2024-03-06T10:29:27;60.53;;;28.50;;
11735;SDS011;5924;51.398;7.088;2024-03-06T10:31:55;63.77;;;29.43;;
11735;SDS011;5924;51.398;7.088;2024-03-06T10:34:22;71.77;;;28.53;;
11735;SDS011;5924;51.398;7.088;2024-03-06T10:36:58;54.93;;;27.00;;
11735;SDS011;5924;51.398;7.088;2024-03-06T10:39:25;70.40;;;31.13;;
11735;SDS011;5924;51.398;7.088;2024-03-06T10:41:52;57.23;;;28.07;;
11735;SDS011;5924;51.398;7.088;2024-03-06T10:44:20;63.23;;;30.57;;
11735;SDS011;5924;51.398;7.088;2024-03-06T10:46:48;67.60;;;29.60;;
11735;SDS011;5924;51.398;7.088;2024-03-06T10:49:22;61.33;;;28.20;;
11735;SDS011;5924;51.398;7.088;2024-03-06T10:51:51;60.37;;;29.63;;
11735;SDS011;5924;51.398;7.088;2024-03-06T10:54:18;65.30;;;28.77;;
11735;SDS011;5924;51.398;7.088;2024-03-06T10:56:46;58.27;;;30.13;;
11735;SDS011;5924;51.398;7.088;2024-03-06T10:59:12;59.03;;;29.03;;
11735;SDS011;5924;51.398;7.088;2024-03-06T11:01:40;62.47;;;29.80;;
11735;SDS011;5924;51.398;7.088;2024-03-06T11:04:08;55.07;;;27.87;;
11735;SDS011;5924;51.398;7.088;2024-03-06T11:06:36;59.70;;;29.00;;
11735;SDS011;5924;51.398;7.088;2024-03-06T11:09:03;58.23;;;28.17;;
11735;SDS011;5924;51.398;7.088;2024-03-06T11:11:29;53.03;;;26.20;;
11735;SDS011;5924;51.398;7.088;2024-03-06T11:14:03;56.17;;;26.97;;
11735;SDS011;5924;51.398;7.088;2024-03-06T11:16:33;51.73;;;26.50;;
11735;SDS011;5924;51.398;7.088;2024-03-06T11:19:22;61.03;;;27.27;;
11735;SDS011;5924;51.398;7.088;2024-03-06T11:21:47;47.77;;;24.93;;
11735;SDS011;5924;51.398;7.088;2024-03-06T11:24:14;51.10;;;25.33;;
11735;SDS011;5924;51.398;7.088;2024-03-06T11:26:53;52.03;;;26.97;;
11735;SDS011;5924;51.398;7.088;2024-03-06T11:29:22;37.17;;;20.67;;
11735;SDS011;5924;51.398;7.088;2024-03-06T11:32:00;45.53;;;23.70;;
11735;SDS011;5924;51.398;7.088;2024-03-06T11:34:27;35.53;;;20.53;;
11735;SDS011;5924;51.398;7.088;2024-03-06T11:36:58;34.00;;;19.93;;
11735;SDS011;5924;51.398;7.088;2024-03-06T11:39:24;35.07;;;18.00;;
11735;SDS011;5924;51.398;7.088;2024-03-06T11:41:55;31.53;;;19.57;;
11735;SDS011;5924;51.398;7.088;2024-03-06T11:44:22;32.40;;;20.50;;
11735;SDS011;5924;51.398;7.088;2024-03-06T11:49:45;31.13;;;18.50;;
11735;SDS011;5924;51.398;7.088;2024-03-06T11:52:11;33.50;;;18.83;;
11735;SDS011;5924;51.398;7.088;2024-03-06T11:54:37;35.90;;;19.90;;
11735;SDS011;5924;51.398;7.088;2024-03-06T11:57:04;31.00;;;18.50;;
11735;SDS011;5924;51.398;7.088;2024-03-06T11:59:34;24.37;;;15.67;;
11735;SDS011;5924;51.398;7.088;2024-03-06T12:02:03;23.07;;;14.30;;
11735;SDS011;5924;51.398;7.088;2024-03-06T12:04:31;25.07;;;16.07;;
11735;SDS011;5924;51.398;7.088;2024-03-06T12:06:58;25.60;;;14.90;;
11735;SDS011;5924;51.398;7.088;2024-03-06T12:09:25;19.90;;;14.30;;
11735;SDS011;5924;51.398;7.088;2024-03-06T12:11:51;16.77;;;10.83;;
11735;SDS011;5924;51.398;7.088;2024-03-06T12:14:18;22.90;;;14.00;;
11735;SDS011;5924;51.398;7.088;2024-03-06T12:16:57;18.33;;;13.33;;
11735;SDS011;5924;51.398;7.088;2024-03-06T12:19:27;22.43;;;13.80;;
11735;SDS011;5924;51.398;7.088;2024-03-06T12:21:54;17.00;;;12.10;;
11735;SDS011;5924;51.398;7.088;2024-03-06T12:24:20;21.00;;;12.83;;
11735;SDS011;5924;51.398;7.088;2024-03-06T12:26:46;21.00;;;13.70;;
11735;SDS011;5924;51.398;7.088;2024-03-06T12:29:23;16.90;;;12.40;;
11735;SDS011;5924;51.398;7.088;2024-03-06T12:31:48;22.13;;;13.20;;
11735;SDS011;5924;51.398;7.088;2024-03-06T12:34:14;19.60;;;13.37;;
11735;SDS011;5924;51.398;7.088;2024-03-06T12:36:42;17.83;;;12.57;;
11735;SDS011;5924;51.398;7.088;2024-03-06T12:39:08;18.77;;;12.90;;
11735;SDS011;5924;51.398;7.088;2024-03-06T12:41:41;18.37;;;13.10;;
11735;SDS011;5924;51.398;7.088;2024-03-06T12:44:07;21.23;;;13.07;;
11735;SDS011;5924;51.398;7.088;2024-03-06T12:46:33;23.43;;;14.30;;
11735;SDS011;5924;51.398;7.088;2024-03-06T12:48:59;22.57;;;15.50;;
11735;SDS011;5924;51.398;7.088;2024-03-06T12:51:25;19.50;;;13.97;;
11735;SDS011;5924;51.398;7.088;2024-03-06T12:53:50;24.07;;;15.60;;
11735;SDS011;5924;51.398;7.088;2024-03-06T12:56:16;27.17;;;18.57;;
11735;SDS011;5924;51.398;7.088;2024-03-06T12:58:42;31.27;;;19.23;;
11735;SDS011;5924;51.398;7.088;2024-03-06T13:01:08;29.60;;;18.50;;
11735;SDS011;5924;51.398;7.088;2024-03-06T13:03:35;29.57;;;17.70;;
11735;SDS011;5924;51.398;7.088;2024-03-06T13:06:02;32.60;;;19.67;;
11735;SDS011;5924;51.398;7.088;2024-03-06T13:08:28;31.67;;;19.30;;
11735;SDS011;5924;51.398;7.088;2024-03-06T13:10:53;37.80;;;22.33;;
11735;SDS011;5924;51.398;7.088;2024-03-06T13:13:19;31.87;;;19.23;;
11735;SDS011;5924;51.398;7.088;2024-03-06T13:15:45;35.20;;;19.00;;
11735;SDS011;5924;51.398;7.088;2024-03-06T13:18:13;33.17;;;22.07;;
11735;SDS011;5924;51.398;7.088;2024-03-06T13:20:39;35.73;;;22.23;;
11735;SDS011;5924;51.398;7.088;2024-03-06T13:23:04;40.60;;;21.73;;
11735;SDS011;5924;51.398;7.088;2024-03-06T13:25:31;34.20;;;19.87;;
11735;SDS011;5924;51.398;7.088;2024-03-06T13:27:56;38.60;;;21.03;;
11735;SDS011;5924;51.398;7.088;2024-03-06T13:30:22;40.47;;;22.43;;
11735;SDS011;5924;51.398;7.088;2024-03-06T13:32:49;33.00;;;20.77;;
11735;SDS011;5924;51.398;7.088;2024-03-06T13:35:15;34.50;;;21.47;;
11735;SDS011;5924;51.398;7.088;2024-03-06T13:37:44;30.63;;;19.27;;
11735;SDS011;5924;51.398;7.088;2024-03-06T13:40:11;29.90;;;18.30;;
11735;SDS011;5924;51.398;7.088;2024-03-06T13:42:40;28.00;;;18.10;;
11735;SDS011;5924;51.398;7.088;2024-03-06T13:45:07;29.27;;;17.17;;
11735;SDS011;5924;51.398;7.088;2024-03-06T13:47:42;26.63;;;18.97;;
11735;SDS011;5924;51.398;7.088;2024-03-06T13:50:12;28.87;;;18.50;;
11735;SDS011;5924;51.398;7.088;2024-03-06T13:52:44;27.30;;;18.67;;
11735;SDS011;5924;51.398;7.088;2024-03-06T13:55:10;29.63;;;19.33;;
11735;SDS011;5924;51.398;7.088;2024-03-06T13:57:36;36.10;;;19.97;;
11735;SDS011;5924;51.398;7.088;2024-03-06T14:00:06;37.63;;;23.27;;
11735;SDS011;5924;51.398;7.088;2024-03-06T14:02:42;46.77;;;24.97;;
11735;SDS011;5924;51.398;7.088;2024-03-06T14:05:12;34.13;;;21.00;;
11735;SDS011;5924;51.398;7.088;2024-03-06T14:07:39;36.93;;;23.10;;
11735;SDS011;5924;51.398;7.088;2024-03-06T14:10:05;32.40;;;21.60;;
11735;SDS011;5924;51.398;7.088;2024-03-06T14:12:33;39.57;;;22.73;;
11735;SDS011;5924;51.398;7.088;2024-03-06T14:15:00;33.53;;;21.57;;
11735;SDS011;5924;51.398;7.088;2024-03-06T14:17:26;37.00;;;22.03;;
11735;SDS011;5924;51.398;7.088;2024-03-06T14:19:52;30.13;;;19.90;;
11735;SDS011;5924;51.398;7.088;2024-03-06T14:22:17;31.23;;;20.20;;
11735;SDS011;5924;51.398;7.088;2024-03-06T14:24:43;41.37;;;23.33;;
11735;SDS011;5924;51.398;7.088;2024-03-06T14:27:09;39.40;;;24.13;;
11735;SDS011;5924;51.398;7.088;2024-03-06T14:29:35;35.10;;;24.23;;
11735;SDS011;5924;51.398;7.088;2024-03-06T14:32:00;44.27;;;25.30;;
11735;SDS011;5924;51.398;7.088;2024-03-06T14:34:26;41.67;;;27.03;;